createdAt,value
2022-09-07T00:01:01.495Z,0.90
2022-09-07T00:03:29.523Z,1.37
2022-09-07T00:05:57.581Z,0.80
2022-09-07T00:08:27.293Z,0.90
2022-09-07T00:10:59.144Z,0.80
2022-09-07T00:13:29.930Z,0.87
2022-09-07T00:15:58.489Z,0.80
2022-09-07T00:18:27.015Z,1.10
2022-09-07T00:21:02.128Z,1.30
2022-09-07T00:23:31.690Z,1.10
2022-09-07T00:26:06.220Z,1.00
2022-09-07T00:28:34.753Z,0.90
2022-09-07T00:31:02.849Z,1.07
2022-09-07T00:33:31.436Z,1.10
2022-09-07T00:35:59.719Z,0.60
2022-09-07T00:38:28.030Z,0.77
2022-09-07T00:40:56.359Z,0.90
2022-09-07T00:43:34.367Z,1.00
2022-09-07T00:46:03.332Z,1.63
2022-09-07T00:48:36.478Z,1.30
2022-09-07T00:51:08.175Z,1.00
2022-09-07T00:53:39.388Z,0.73
2022-09-07T00:56:08.367Z,1.20
2022-09-07T00:58:40.939Z,1.00
2022-09-07T01:01:09.829Z,1.00
2022-09-07T01:03:41.961Z,0.90
2022-09-07T01:06:15.280Z,0.80
2022-09-07T01:08:44.294Z,1.40
2022-09-07T01:11:12.892Z,1.27
2022-09-07T01:13:45.213Z,0.50
2022-09-07T01:16:23.878Z,0.90
2022-09-07T01:18:59.115Z,0.90
2022-09-07T01:21:35.648Z,0.83
2022-09-07T01:24:26.177Z,0.90
2022-09-07T01:27:25.870Z,0.97
2022-09-07T01:30:01.510Z,0.80
2022-09-07T01:32:36.663Z,0.80
2022-09-07T01:35:11.990Z,0.60
2022-09-07T01:37:45.636Z,0.77
2022-09-07T01:40:17.789Z,0.80
2022-09-07T01:42:50.338Z,0.50
2022-09-07T01:45:23.086Z,0.83
2022-09-07T01:47:55.602Z,0.60
2022-09-07T01:50:27.848Z,1.00
2022-09-07T01:53:00.168Z,0.80
2022-09-07T01:55:33.930Z,0.67
2022-09-07T01:58:09.850Z,0.50
2022-09-07T02:00:42.607Z,0.70
2022-09-07T02:03:15.305Z,0.57
2022-09-07T02:05:49.315Z,0.80
2022-09-07T02:08:22.440Z,0.57
2022-09-07T02:10:55.357Z,0.40
2022-09-07T02:13:27.713Z,0.60
2022-09-07T02:16:02.066Z,0.50
2022-09-07T02:18:35.922Z,1.00
2022-09-07T02:21:07.694Z,0.67
2022-09-07T02:23:41.757Z,0.50
2022-09-07T02:26:17.506Z,0.50
2022-09-07T02:28:45.724Z,0.40
2022-09-07T02:31:15.724Z,0.70
2022-09-07T02:33:44.273Z,0.77
2022-09-07T02:36:14.224Z,0.50
2022-09-07T02:38:42.701Z,0.80
2022-09-07T02:41:28.961Z,0.67
2022-09-07T02:43:57.652Z,0.70
2022-09-07T02:46:43.156Z,0.90
2022-09-07T02:49:17.889Z,0.77
2022-09-07T02:51:54.089Z,0.60
2022-09-07T02:54:42.284Z,0.80
2022-09-07T02:57:18.375Z,1.10
2022-09-07T02:59:56.618Z,0.83
2022-09-07T03:02:32.496Z,0.90
2022-09-07T03:05:04.633Z,1.00
2022-09-07T03:07:39.957Z,0.77
2022-09-07T03:10:12.393Z,0.80
2022-09-07T03:12:42.113Z,0.80
2022-09-07T03:15:12.687Z,0.80
2022-09-07T03:17:42.973Z,1.00
2022-09-07T03:20:11.558Z,0.90
2022-09-07T03:22:40.150Z,0.70
2022-09-07T03:25:09.233Z,1.10
2022-09-07T03:27:37.357Z,1.00
2022-09-07T03:30:06.517Z,1.33
2022-09-07T03:32:36.273Z,1.30
2022-09-07T03:35:07.835Z,1.10
2022-09-07T03:37:37.170Z,1.40
2022-09-07T03:40:06.666Z,1.03
2022-09-07T03:42:34.730Z,1.10
2022-09-07T03:45:02.993Z,1.27
2022-09-07T03:47:31.121Z,1.20
2022-09-07T03:49:59.056Z,1.40
2022-09-07T03:52:28.360Z,1.20
2022-09-07T03:54:56.342Z,1.57
2022-09-07T03:57:24.357Z,1.17
2022-09-07T03:59:52.338Z,1.00
2022-09-07T04:02:20.551Z,1.23
2022-09-07T04:04:48.834Z,0.90
2022-09-07T04:07:17.110Z,1.20
2022-09-07T04:09:46.398Z,1.30
2022-09-07T04:12:14.397Z,0.87
2022-09-07T04:14:42.350Z,1.10
2022-09-07T04:17:10.491Z,1.30
2022-09-07T04:19:38.485Z,1.00
2022-09-07T04:22:06.595Z,1.13
2022-09-07T04:24:34.555Z,1.00
2022-09-07T04:27:03.893Z,1.40
2022-09-07T04:29:31.825Z,1.43
2022-09-07T04:32:00.041Z,1.50
2022-09-07T04:34:28.180Z,1.40
2022-09-07T04:36:56.117Z,1.53
2022-09-07T04:39:24.174Z,1.60
2022-09-07T04:41:52.118Z,1.90
2022-09-07T04:44:21.493Z,1.73
2022-09-07T04:46:49.425Z,1.87
2022-09-07T04:49:18.134Z,2.13
2022-09-07T04:51:46.124Z,2.10
2022-09-07T04:54:14.081Z,2.27
2022-09-07T04:56:42.082Z,2.00
2022-09-07T04:59:10.287Z,2.07
2022-09-07T05:01:39.885Z,2.20
2022-09-07T05:04:07.924Z,2.20
2022-09-07T05:06:35.885Z,2.13
2022-09-07T05:09:03.919Z,2.27
2022-09-07T05:11:31.871Z,2.30
2022-09-07T05:14:01.124Z,1.70
2022-09-07T05:16:30.085Z,1.80
2022-09-07T05:19:02.056Z,2.30
2022-09-07T05:21:31.542Z,1.97
2022-09-07T05:24:00.840Z,2.17
2022-09-07T05:26:31.009Z,2.00
2022-09-07T05:31:50.335Z,2.20
2022-09-07T05:34:35.260Z,2.50
2022-09-07T05:37:03.755Z,1.93
2022-09-07T05:39:31.921Z,1.80
2022-09-07T05:42:00.026Z,1.93
2022-09-07T05:44:43.633Z,2.20
2022-09-07T05:47:12.256Z,2.13
2022-09-07T05:49:41.674Z,1.97
2022-09-07T05:52:09.682Z,2.10
2022-09-07T05:54:37.806Z,2.00
2022-09-07T05:57:07.049Z,1.90
2022-09-07T05:59:35.285Z,1.90
2022-09-07T06:02:03.367Z,1.40
2022-09-07T06:04:31.428Z,1.70
2022-09-07T06:12:37.219Z,1.63
2022-09-07T06:15:05.861Z,1.63
2022-09-07T06:17:34.056Z,1.40
2022-09-07T06:20:02.145Z,1.40
2022-09-07T06:22:31.556Z,1.70
2022-09-07T06:24:59.914Z,1.77
2022-09-07T06:27:28.185Z,1.80
2022-09-07T06:29:56.344Z,1.80
2022-09-07T06:35:08.885Z,1.87
2022-09-07T06:37:38.360Z,2.00
2022-09-07T06:40:07.732Z,2.00
2022-09-07T06:42:38.496Z,1.83
2022-09-07T06:45:07.501Z,2.20
2022-09-07T06:47:35.764Z,2.17
2022-09-07T06:50:03.751Z,2.43
2022-09-07T06:55:21.132Z,3.93
2022-09-07T06:57:49.125Z,5.50
2022-09-07T07:00:17.597Z,7.47
2022-09-07T07:02:45.559Z,11.10
2022-09-07T07:05:13.525Z,14.23
2022-09-07T07:07:41.467Z,13.53
2022-09-07T07:10:10.397Z,14.10
2022-09-07T07:15:08.748Z,15.43
2022-09-07T07:17:37.480Z,12.93
2022-09-07T07:20:06.667Z,14.30
2022-09-07T07:22:49.951Z,13.30
2022-09-07T07:25:17.988Z,13.53
2022-09-07T07:27:47.715Z,13.27
2022-09-07T07:30:16.265Z,13.97
2022-09-07T07:32:50.090Z,14.83
2022-09-07T07:35:18.179Z,15.43
2022-09-07T07:37:46.640Z,14.40
2022-09-07T07:40:16.196Z,14.57
2022-09-07T07:42:47.289Z,14.27
2022-09-07T07:48:03.583Z,12.80
2022-09-07T07:50:32.578Z,13.40
2022-09-07T07:55:49.787Z,11.63
2022-09-07T07:58:19.528Z,10.30
2022-09-07T08:00:56.117Z,11.37
2022-09-07T08:03:25.623Z,10.73
2022-09-07T08:05:53.837Z,10.30
2022-09-07T08:08:22.913Z,8.90
2022-09-07T08:10:50.962Z,8.03
2022-09-07T08:13:21.470Z,7.70
2022-09-07T08:15:49.794Z,6.07
2022-09-07T08:18:18.709Z,5.13
2022-09-07T08:20:46.588Z,4.77
2022-09-07T08:23:15.126Z,4.50
2022-09-07T08:25:51.519Z,4.03
2022-09-07T08:28:21.162Z,3.67
2022-09-07T08:30:49.154Z,2.87
2022-09-07T08:33:17.436Z,2.53
2022-09-07T08:35:56.169Z,2.77
2022-09-07T08:38:24.770Z,2.70
2022-09-07T08:40:52.938Z,2.10
2022-09-07T08:43:32.572Z,2.27
2022-09-07T08:46:06.651Z,2.40
2022-09-07T08:48:36.068Z,2.20
2022-09-07T08:51:09.634Z,2.40
2022-09-07T08:53:44.503Z,2.90
2022-09-07T08:56:19.767Z,2.03
2022-09-07T08:58:51.154Z,2.30
2022-09-07T09:01:36.688Z,1.90
2022-09-07T09:04:19.418Z,2.27
2022-09-07T09:06:58.608Z,1.90
2022-09-07T09:09:34.728Z,2.07
2022-09-07T09:12:14.149Z,1.70
2022-09-07T09:14:57.785Z,1.90
2022-09-07T09:17:32.182Z,1.70
2022-09-07T09:20:09.083Z,1.63
2022-09-07T09:22:39.489Z,1.60
2022-09-07T09:25:18.753Z,1.80
2022-09-07T09:27:46.838Z,1.80
2022-09-07T09:30:18.624Z,2.30
2022-09-07T09:32:48.377Z,1.57
2022-09-07T09:35:30.671Z,1.60
2022-09-07T09:37:58.601Z,1.50
2022-09-07T09:40:28.547Z,1.40
2022-09-07T09:43:01.729Z,1.60
2022-09-07T09:46:12.165Z,1.23
2022-09-07T09:48:29.390Z,1.20
2022-09-07T09:53:55.766Z,1.20
2022-09-07T09:56:36.130Z,1.00
2022-09-07T10:05:27.729Z,1.30
2022-09-07T10:07:56.241Z,1.00
2022-09-07T10:10:24.155Z,0.90
2022-09-07T10:12:54.596Z,1.23
2022-09-07T10:15:30.075Z,0.93
2022-09-07T10:18:00.378Z,1.17
2022-09-07T10:20:36.886Z,1.30
2022-09-07T10:23:06.287Z,1.07
2022-09-07T10:25:37.286Z,1.13
2022-09-07T10:28:18.850Z,1.60
2022-09-07T10:31:09.962Z,1.93
2022-09-07T10:36:45.599Z,1.93
2022-09-07T10:39:17.418Z,1.60
2022-09-07T10:41:52.444Z,1.50
2022-09-07T10:44:40.036Z,1.37
2022-09-07T10:47:19.948Z,1.20
2022-09-07T10:52:52.404Z,1.90
2022-09-07T10:55:27.912Z,2.10
2022-09-07T10:58:11.953Z,1.70
2022-09-07T11:00:46.490Z,1.80
2022-09-07T11:03:28.164Z,1.60
2022-09-07T11:06:15.995Z,1.60
2022-09-07T11:12:03.809Z,1.40
2022-09-07T11:14:37.711Z,1.40
2022-09-07T11:17:12.620Z,1.27
2022-09-07T11:19:47.501Z,1.37
2022-09-07T11:22:34.650Z,1.20
2022-09-07T11:28:02.126Z,1.50
2022-09-07T11:30:32.567Z,1.63
2022-09-07T11:33:05.185Z,1.17
2022-09-07T11:35:40.699Z,1.40
2022-09-07T11:38:26.327Z,1.30
2022-09-07T11:41:02.988Z,1.37
2022-09-07T11:43:36.090Z,1.77
2022-09-07T11:46:08.661Z,1.50
2022-09-07T11:48:42.713Z,1.40
2022-09-07T11:51:18.439Z,1.60
2022-09-07T11:53:50.947Z,1.10
2022-09-07T11:56:24.069Z,1.50
2022-09-07T11:59:13.480Z,1.63
2022-09-07T12:01:49.742Z,1.40
2022-09-07T12:04:30.193Z,1.60
2022-09-07T12:07:33.434Z,1.80
2022-09-07T12:10:27.020Z,1.50
2022-09-07T12:13:11.753Z,1.80
2022-09-07T12:15:50.126Z,1.93
2022-09-07T12:18:42.518Z,1.80
2022-09-07T12:21:38.762Z,1.40
2022-09-07T12:24:43.140Z,1.90
2022-09-07T12:27:28.189Z,1.57
2022-09-07T12:30:30.060Z,1.70
2022-09-07T12:33:19.778Z,2.13
2022-09-07T12:35:47.666Z,2.20
2022-09-07T12:38:58.047Z,1.70
2022-09-07T12:41:41.006Z,2.00
2022-09-07T12:44:16.858Z,1.50
2022-09-07T12:46:59.910Z,1.93
2022-09-07T12:49:46.149Z,1.93
2022-09-07T12:52:48.286Z,2.53
2022-09-07T12:58:39.377Z,2.40
2022-09-07T13:01:26.296Z,2.10
2022-09-07T13:04:35.400Z,1.43
2022-09-07T13:07:36.309Z,2.23
2022-09-07T13:10:16.634Z,1.70
2022-09-07T13:12:57.376Z,1.47
2022-09-07T13:15:40.687Z,1.60
2022-09-07T13:18:34.110Z,1.73
2022-09-07T13:21:38.439Z,1.77
2022-09-07T13:24:50.477Z,1.40
2022-09-07T13:27:40.791Z,1.47
2022-09-07T13:30:24.393Z,1.40
2022-09-07T13:33:08.336Z,1.60
2022-09-07T13:35:38.077Z,1.53
2022-09-07T13:38:06.195Z,1.63
2022-09-07T13:40:39.988Z,1.63
2022-09-07T13:43:17.546Z,1.80
2022-09-07T13:45:59.705Z,1.47
2022-09-07T13:48:33.499Z,1.80
2022-09-07T13:51:08.269Z,1.40
2022-09-07T13:53:46.394Z,1.43
2022-09-07T13:56:23.353Z,1.33
2022-09-07T13:58:53.657Z,1.30
2022-09-07T14:01:23.686Z,1.00
2022-09-07T14:03:54.544Z,1.13
2022-09-07T14:06:35.135Z,1.10
2022-09-07T14:09:05.994Z,1.47
2022-09-07T14:11:41.807Z,1.10
2022-09-07T14:14:21.698Z,1.20
2022-09-07T14:16:54.327Z,1.37
2022-09-07T14:19:25.527Z,1.60
2022-09-07T14:21:59.992Z,1.10
2022-09-07T14:24:34.362Z,1.47
2022-09-07T14:27:03.061Z,1.40
2022-09-07T14:29:32.735Z,1.00
2022-09-07T14:32:02.716Z,1.30
2022-09-07T14:34:34.970Z,1.13
2022-09-07T14:37:08.580Z,1.27
2022-09-07T14:39:40.888Z,1.20
2022-09-07T14:42:11.538Z,1.10
2022-09-07T14:44:42.899Z,1.30
2022-09-07T14:47:23.309Z,1.10
2022-09-07T14:49:53.213Z,1.00
2022-09-07T14:52:29.097Z,1.50
2022-09-07T14:54:57.033Z,1.10
2022-09-07T14:57:30.309Z,1.20
2022-09-07T14:59:58.820Z,1.27
2022-09-07T15:02:37.654Z,1.10
2022-09-07T15:05:22.982Z,1.63
2022-09-07T15:07:54.363Z,0.90
2022-09-07T15:10:36.771Z,1.17
2022-09-07T15:13:07.176Z,1.40
2022-09-07T15:15:37.374Z,1.20
2022-09-07T15:18:09.073Z,1.10
2022-09-07T15:20:39.597Z,1.17
2022-09-07T15:23:11.986Z,1.27
2022-09-07T15:25:43.306Z,1.27
2022-09-07T15:34:02.307Z,0.90
2022-09-07T15:36:32.020Z,1.20
2022-09-07T15:39:03.020Z,1.10
2022-09-07T15:41:31.237Z,1.00
2022-09-07T15:43:59.629Z,1.00
2022-09-07T15:46:27.476Z,1.27
2022-09-07T15:48:57.249Z,1.10
2022-09-07T15:54:16.511Z,1.20
2022-09-07T15:57:49.363Z,1.10
2022-09-07T15:59:32.792Z,1.20
2022-09-07T16:02:00.804Z,1.20
2022-09-07T16:04:29.104Z,1.23
2022-09-07T16:06:56.980Z,1.00
2022-09-07T16:09:26.512Z,1.07
2022-09-07T16:11:54.509Z,0.90
2022-09-07T16:14:22.484Z,0.80
2022-09-07T16:19:40.965Z,1.20
2022-09-07T16:22:09.612Z,1.30
2022-09-07T16:24:39.021Z,1.70
2022-09-07T16:27:07.192Z,1.30
2022-09-07T16:29:34.996Z,1.50
2022-09-07T16:34:50.851Z,1.00
2022-09-07T16:37:18.917Z,1.13
2022-09-07T16:39:48.115Z,1.03
2022-09-07T16:42:15.980Z,1.23
2022-09-07T16:44:43.778Z,2.00
2022-09-07T16:47:12.687Z,3.10
2022-09-07T16:49:41.405Z,1.80
2022-09-07T16:52:10.948Z,1.20
2022-09-07T16:54:38.936Z,1.10
2022-09-07T16:57:08.148Z,1.00
2022-09-07T16:59:35.949Z,1.57
2022-09-07T17:02:05.068Z,1.20
2022-09-07T17:04:33.104Z,1.10
2022-09-07T17:07:00.922Z,1.27
2022-09-07T17:09:28.764Z,1.30
2022-09-07T17:11:56.615Z,1.37
2022-09-07T17:14:25.829Z,1.20
2022-09-07T17:16:53.773Z,1.33
2022-09-07T17:19:30.022Z,1.20
2022-09-07T17:21:59.598Z,1.10
2022-09-07T17:24:27.435Z,1.20
2022-09-07T17:26:55.342Z,1.13
2022-09-07T17:29:23.173Z,1.20
2022-09-07T17:34:40.494Z,1.40
2022-09-07T17:37:09.216Z,1.33
2022-09-07T17:39:38.597Z,1.10
2022-09-07T17:42:07.233Z,1.27
2022-09-07T17:44:38.061Z,1.53
2022-09-07T17:47:07.925Z,1.37
2022-09-07T17:49:35.770Z,1.20
2022-09-07T17:52:03.812Z,1.77
2022-09-07T17:54:32.722Z,1.73
2022-09-07T17:57:00.581Z,1.40
2022-09-07T18:02:20.243Z,1.80
2022-09-07T18:04:50.600Z,1.53
2022-09-07T18:07:20.909Z,1.40
2022-09-07T18:09:48.692Z,1.27
2022-09-07T18:12:16.555Z,1.40
2022-09-07T18:14:44.814Z,1.30
2022-09-07T18:17:12.663Z,2.70
2022-09-07T18:19:41.786Z,10.20
2022-09-07T18:22:09.595Z,9.47
2022-09-07T18:24:37.385Z,9.90
2022-09-07T18:27:05.529Z,4.73
2022-09-07T18:29:34.353Z,2.10
2022-09-07T18:32:04.775Z,1.80
2022-09-07T18:34:35.674Z,4.07
2022-09-07T18:37:05.138Z,3.33
2022-09-07T18:39:33.601Z,3.10
2022-09-07T18:42:01.722Z,3.63
2022-09-07T18:47:27.996Z,2.47
2022-09-07T18:49:56.916Z,2.00
2022-09-07T18:55:14.405Z,3.80
2022-09-07T18:57:42.244Z,5.10
2022-09-07T19:00:12.321Z,5.73
2022-09-07T19:02:40.208Z,6.50
2022-09-07T19:07:59.360Z,4.67
2022-09-07T19:10:27.160Z,8.57
2022-09-07T19:12:54.984Z,4.57
2022-09-07T19:15:23.603Z,4.07
2022-09-07T19:17:51.453Z,3.70
2022-09-07T19:20:19.281Z,2.60
2022-09-07T19:22:47.698Z,2.47
2022-09-07T19:25:17.235Z,2.50
2022-09-07T19:27:45.090Z,2.20
2022-09-07T19:30:13.507Z,1.73
2022-09-07T19:32:41.291Z,1.90
2022-09-07T19:35:09.849Z,1.90
2022-09-07T19:37:37.643Z,1.80
2022-09-07T19:40:07.142Z,1.90
2022-09-07T19:42:36.466Z,1.87
2022-09-07T19:45:05.924Z,1.63
2022-09-07T19:47:34.936Z,2.20
2022-09-07T19:50:02.879Z,2.00
2022-09-07T19:52:30.800Z,2.20
2022-09-07T19:55:01.996Z,2.10
2022-09-07T19:57:29.855Z,2.00
2022-09-07T20:00:00.136Z,1.80
2022-09-07T20:02:28.017Z,1.83
2022-09-07T20:04:55.914Z,1.83
2022-09-07T20:07:23.784Z,1.60
2022-09-07T20:09:52.311Z,1.77
2022-09-07T20:12:20.232Z,1.80
2022-09-07T20:14:47.989Z,1.90
2022-09-07T20:17:17.208Z,2.37
2022-09-07T20:19:44.988Z,2.63
2022-09-07T20:22:12.810Z,2.03
2022-09-07T20:24:40.706Z,2.23
2022-09-07T20:27:08.500Z,2.20
2022-09-07T20:29:36.443Z,2.37
2022-09-07T20:32:04.699Z,2.10
2022-09-07T20:34:33.888Z,2.27
2022-09-07T20:37:01.999Z,4.13
2022-09-07T20:39:29.840Z,15.57
2022-09-07T20:41:57.803Z,6.30
2022-09-07T20:44:25.627Z,6.03
2022-09-07T20:46:53.670Z,3.00
2022-09-07T20:49:21.841Z,3.17
2022-09-07T20:51:51.045Z,4.17
2022-09-07T20:54:19.212Z,4.53
2022-09-07T20:56:46.982Z,3.20
2022-09-07T20:59:15.239Z,2.83
2022-09-07T21:01:43.163Z,3.00
2022-09-07T21:04:15.346Z,2.37
2022-09-07T21:06:43.380Z,3.23
2022-09-07T21:09:12.642Z,4.37
2022-09-07T21:11:49.138Z,4.50
2022-09-07T21:14:19.754Z,2.97
2022-09-07T21:16:49.697Z,2.97
2022-09-07T21:19:20.481Z,4.83
2022-09-07T21:21:48.332Z,4.67
2022-09-07T21:24:21.765Z,4.47
2022-09-07T21:26:50.692Z,7.03
2022-09-07T21:29:20.431Z,7.10
2022-09-07T21:31:48.733Z,3.93
2022-09-07T21:34:17.146Z,3.93
2022-09-07T21:36:45.379Z,2.20
2022-09-07T21:39:14.660Z,1.80
2022-09-07T21:41:44.984Z,1.83
2022-09-07T21:44:13.893Z,1.70
2022-09-07T21:46:42.800Z,1.60
2022-09-07T21:49:11.076Z,1.67
2022-09-07T21:51:38.918Z,1.60
2022-09-07T21:54:06.965Z,1.57
2022-09-07T21:56:34.813Z,1.40
2022-09-07T21:59:04.608Z,1.53
2022-09-07T22:01:33.072Z,1.67
2022-09-07T22:04:02.449Z,1.40
2022-09-07T22:06:32.067Z,1.47
2022-09-07T22:09:00.436Z,1.43
2022-09-07T22:11:29.626Z,1.10
2022-09-07T22:13:58.649Z,1.70
2022-09-07T22:16:27.977Z,1.30
2022-09-07T22:18:55.895Z,1.33
2022-09-07T22:21:25.560Z,1.33
2022-09-07T22:23:56.041Z,1.20
2022-09-07T22:26:26.009Z,1.27
2022-09-07T22:28:53.929Z,1.33
2022-09-07T22:31:24.496Z,1.13
2022-09-07T22:33:54.643Z,1.10
2022-09-07T22:36:24.840Z,1.30
2022-09-07T22:38:55.768Z,1.23
2022-09-07T22:41:24.748Z,1.30
2022-09-07T22:43:52.924Z,1.60
2022-09-07T22:46:22.958Z,1.50
2022-09-07T22:48:53.770Z,1.30
2022-09-07T22:51:22.442Z,1.00
2022-09-07T22:53:50.273Z,1.07
2022-09-07T22:56:19.818Z,1.27
2022-09-07T22:58:48.582Z,1.13
2022-09-07T23:01:17.088Z,1.03
2022-09-07T23:03:45.947Z,1.07
2022-09-07T23:06:23.041Z,1.63
2022-09-07T23:08:51.187Z,1.20
2022-09-07T23:11:19.691Z,1.60
2022-09-07T23:13:50.492Z,1.47
2022-09-07T23:16:18.389Z,1.20
2022-09-07T23:18:46.636Z,1.50
2022-09-07T23:21:14.801Z,1.40
2022-09-07T23:23:44.225Z,1.10
2022-09-07T23:26:12.090Z,1.23
2022-09-07T23:28:39.880Z,1.00
2022-09-07T23:31:11.483Z,1.30
2022-09-07T23:33:39.446Z,1.33
2022-09-07T23:36:08.255Z,1.30
2022-09-07T23:38:36.139Z,1.83
2022-09-07T23:41:05.546Z,1.40
2022-09-07T23:43:33.585Z,1.07
2022-09-07T23:46:01.637Z,1.30
2022-09-07T23:48:29.838Z,1.20
2022-09-07T23:50:58.128Z,1.13
2022-09-07T23:53:26.088Z,1.60
2022-09-07T23:55:54.219Z,1.20
2022-09-07T23:58:26.851Z,1.30
